sensor_id;sensor_type;location;lat;lon;timestamp;P1;durP1;ratioP1;P2;durP2;ratioP2
1296;SDS011;641;48.492;9.184;2023-08-21T00:00:43;13.47;;;8.00;;
1296;SDS011;641;48.492;9.184;2023-08-21T00:03:09;12.80;;;6.90;;
1296;SDS011;641;48.492;9.184;2023-08-21T00:05:34;15.40;;;8.50;;
1296;SDS011;641;48.492;9.184;2023-08-21T00:08:00;15.17;;;8.60;;
1296;SDS011;641;48.492;9.184;2023-08-21T00:10:25;12.20;;;8.10;;
1296;SDS011;641;48.492;9.184;2023-08-21T00:12:51;14.47;;;7.97;;
1296;SDS011;641;48.492;9.184;2023-08-21T00:15:16;15.03;;;7.93;;
1296;SDS011;641;48.492;9.184;2023-08-21T00:17:42;13.73;;;8.13;;
1296;SDS011;641;48.492;9.184;2023-08-21T00:20:08;14.00;;;8.50;;
1296;SDS011;641;48.492;9.184;2023-08-21T00:22:34;15.57;;;8.50;;
1296;SDS011;641;48.492;9.184;2023-08-21T00:25:00;16.40;;;8.90;;
1296;SDS011;641;48.492;9.184;2023-08-21T00:27:26;16.20;;;8.40;;
1296;SDS011;641;48.492;9.184;2023-08-21T00:29:52;13.13;;;8.27;;
1296;SDS011;641;48.492;9.184;2023-08-21T00:32:17;12.73;;;7.93;;
1296;SDS011;641;48.492;9.184;2023-08-21T00:34:43;12.87;;;7.70;;
1296;SDS011;641;48.492;9.184;2023-08-21T00:37:09;12.30;;;7.67;;
1296;SDS011;641;48.492;9.184;2023-08-21T00:39:35;13.20;;;8.10;;
1296;SDS011;641;48.492;9.184;2023-08-21T00:42:01;13.47;;;9.03;;
1296;SDS011;641;48.492;9.184;2023-08-21T00:44:27;12.93;;;8.70;;
1296;SDS011;641;48.492;9.184;2023-08-21T00:46:52;15.07;;;10.03;;
1296;SDS011;641;48.492;9.184;2023-08-21T00:49:18;12.83;;;8.97;;
1296;SDS011;641;48.492;9.184;2023-08-21T00:51:44;18.53;;;8.80;;
1296;SDS011;641;48.492;9.184;2023-08-21T00:54:10;12.57;;;7.83;;
1296;SDS011;641;48.492;9.184;2023-08-21T00:56:36;15.50;;;9.60;;
1296;SDS011;641;48.492;9.184;2023-08-21T00:59:01;17.17;;;8.50;;
1296;SDS011;641;48.492;9.184;2023-08-21T01:01:27;12.97;;;8.70;;
1296;SDS011;641;48.492;9.184;2023-08-21T01:03:53;15.20;;;9.27;;
1296;SDS011;641;48.492;9.184;2023-08-21T01:06:19;13.47;;;9.00;;
1296;SDS011;641;48.492;9.184;2023-08-21T01:16:45;13.80;;;9.20;;
1296;SDS011;641;48.492;9.184;2023-08-21T01:19:31;14.53;;;8.90;;
1296;SDS011;641;48.492;9.184;2023-08-21T01:22:02;13.87;;;8.87;;
1296;SDS011;641;48.492;9.184;2023-08-21T01:24:28;14.50;;;8.70;;
1296;SDS011;641;48.492;9.184;2023-08-21T01:26:54;14.10;;;10.03;;
1296;SDS011;641;48.492;9.184;2023-08-21T01:29:19;16.20;;;9.40;;
1296;SDS011;641;48.492;9.184;2023-08-21T01:31:47;14.23;;;9.50;;
1296;SDS011;641;48.492;9.184;2023-08-21T01:34:17;14.77;;;9.73;;
1296;SDS011;641;48.492;9.184;2023-08-21T01:36:44;15.83;;;9.33;;
1296;SDS011;641;48.492;9.184;2023-08-21T01:39:10;16.60;;;11.53;;
1296;SDS011;641;48.492;9.184;2023-08-21T01:41:36;18.40;;;11.00;;
1296;SDS011;641;48.492;9.184;2023-08-21T01:44:01;15.30;;;10.77;;
1296;SDS011;641;48.492;9.184;2023-08-21T01:46:27;15.33;;;10.53;;
1296;SDS011;641;48.492;9.184;2023-08-21T01:48:52;13.87;;;9.33;;
1296;SDS011;641;48.492;9.184;2023-08-21T01:51:18;14.60;;;10.20;;
1296;SDS011;641;48.492;9.184;2023-08-21T01:53:44;14.37;;;10.07;;
1296;SDS011;641;48.492;9.184;2023-08-21T01:56:09;17.90;;;11.03;;
1296;SDS011;641;48.492;9.184;2023-08-21T01:58:35;14.33;;;10.80;;
1296;SDS011;641;48.492;9.184;2023-08-21T02:01:00;16.83;;;9.77;;
1296;SDS011;641;48.492;9.184;2023-08-21T02:03:26;15.53;;;9.10;;
1296;SDS011;641;48.492;9.184;2023-08-21T02:05:54;14.43;;;8.60;;
1296;SDS011;641;48.492;9.184;2023-08-21T02:08:22;15.20;;;9.07;;
1296;SDS011;641;48.492;9.184;2023-08-21T02:10:51;15.87;;;9.27;;
1296;SDS011;641;48.492;9.184;2023-08-21T02:13:17;13.60;;;9.07;;
1296;SDS011;641;48.492;9.184;2023-08-21T02:15:43;13.30;;;8.40;;
1296;SDS011;641;48.492;9.184;2023-08-21T02:18:09;14.23;;;8.60;;
1296;SDS011;641;48.492;9.184;2023-08-21T02:20:35;13.27;;;8.60;;
1296;SDS011;641;48.492;9.184;2023-08-21T02:23:00;15.17;;;8.97;;
1296;SDS011;641;48.492;9.184;2023-08-21T02:25:26;15.30;;;8.93;;
1296;SDS011;641;48.492;9.184;2023-08-21T02:27:51;13.43;;;8.03;;
1296;SDS011;641;48.492;9.184;2023-08-21T02:30:17;14.83;;;8.63;;
1296;SDS011;641;48.492;9.184;2023-08-21T02:32:42;14.40;;;8.40;;
1296;SDS011;641;48.492;9.184;2023-08-21T02:35:08;14.63;;;9.30;;
1296;SDS011;641;48.492;9.184;2023-08-21T02:37:34;15.10;;;9.63;;
1296;SDS011;641;48.492;9.184;2023-08-21T02:40:03;12.97;;;8.03;;
1296;SDS011;641;48.492;9.184;2023-08-21T02:42:33;13.20;;;8.83;;
1296;SDS011;641;48.492;9.184;2023-08-21T02:44:58;15.33;;;9.47;;
1296;SDS011;641;48.492;9.184;2023-08-21T02:47:24;17.73;;;9.87;;
1296;SDS011;641;48.492;9.184;2023-08-21T02:49:49;15.13;;;9.27;;
1296;SDS011;641;48.492;9.184;2023-08-21T02:52:15;14.03;;;8.80;;
1296;SDS011;641;48.492;9.184;2023-08-21T02:54:42;15.40;;;8.57;;
1296;SDS011;641;48.492;9.184;2023-08-21T02:57:08;15.87;;;10.07;;
1296;SDS011;641;48.492;9.184;2023-08-21T02:59:33;14.03;;;8.40;;
1296;SDS011;641;48.492;9.184;2023-08-21T03:01:59;14.93;;;9.37;;
1296;SDS011;641;48.492;9.184;2023-08-21T03:04:24;14.10;;;8.33;;
1296;SDS011;641;48.492;9.184;2023-08-21T03:06:50;14.57;;;8.73;;
1296;SDS011;641;48.492;9.184;2023-08-21T03:09:15;14.97;;;9.10;;
1296;SDS011;641;48.492;9.184;2023-08-21T03:11:41;15.53;;;9.47;;
1296;SDS011;641;48.492;9.184;2023-08-21T03:14:06;16.07;;;8.80;;
1296;SDS011;641;48.492;9.184;2023-08-21T03:16:32;13.70;;;8.00;;
1296;SDS011;641;48.492;9.184;2023-08-21T03:18:58;18.03;;;10.30;;
1296;SDS011;641;48.492;9.184;2023-08-21T03:21:25;15.73;;;9.47;;
1296;SDS011;641;48.492;9.184;2023-08-21T03:23:51;14.73;;;9.43;;
1296;SDS011;641;48.492;9.184;2023-08-21T03:26:21;12.60;;;8.73;;
1296;SDS011;641;48.492;9.184;2023-08-21T03:28:47;13.93;;;8.30;;
1296;SDS011;641;48.492;9.184;2023-08-21T03:31:12;19.93;;;8.33;;
1296;SDS011;641;48.492;9.184;2023-08-21T03:33:38;13.03;;;8.00;;
1296;SDS011;641;48.492;9.184;2023-08-21T03:36:04;13.23;;;9.00;;
1296;SDS011;641;48.492;9.184;2023-08-21T03:38:29;18.50;;;8.60;;
1296;SDS011;641;48.492;9.184;2023-08-21T03:40:55;14.57;;;8.77;;
1296;SDS011;641;48.492;9.184;2023-08-21T03:43:20;16.43;;;9.13;;
1296;SDS011;641;48.492;9.184;2023-08-21T03:45:46;25.23;;;9.40;;
1296;SDS011;641;48.492;9.184;2023-08-21T03:48:11;22.27;;;15.33;;
1296;SDS011;641;48.492;9.184;2023-08-21T03:50:38;13.90;;;10.03;;
1296;SDS011;641;48.492;9.184;2023-08-21T03:53:04;16.00;;;10.03;;
1296;SDS011;641;48.492;9.184;2023-08-21T03:55:29;14.23;;;10.10;;
1296;SDS011;641;48.492;9.184;2023-08-21T03:57:55;17.70;;;10.27;;
1296;SDS011;641;48.492;9.184;2023-08-21T04:00:21;17.47;;;10.67;;
1296;SDS011;641;48.492;9.184;2023-08-21T04:02:47;16.80;;;11.90;;
1296;SDS011;641;48.492;9.184;2023-08-21T04:05:12;15.90;;;10.33;;
1296;SDS011;641;48.492;9.184;2023-08-21T04:07:38;20.07;;;10.43;;
1296;SDS011;641;48.492;9.184;2023-08-21T04:10:04;16.10;;;11.30;;
1296;SDS011;641;48.492;9.184;2023-08-21T04:12:30;14.73;;;11.07;;
1296;SDS011;641;48.492;9.184;2023-08-21T04:14:56;22.03;;;11.60;;
1296;SDS011;641;48.492;9.184;2023-08-21T04:17:22;16.90;;;11.00;;
1296;SDS011;641;48.492;9.184;2023-08-21T04:19:48;15.87;;;10.70;;
1296;SDS011;641;48.492;9.184;2023-08-21T04:22:14;16.60;;;10.93;;
1296;SDS011;641;48.492;9.184;2023-08-21T04:24:40;17.97;;;12.00;;
1296;SDS011;641;48.492;9.184;2023-08-21T04:27:06;17.43;;;10.93;;
1296;SDS011;641;48.492;9.184;2023-08-21T04:29:32;21.37;;;11.00;;
1296;SDS011;641;48.492;9.184;2023-08-21T04:31:57;15.93;;;10.17;;
1296;SDS011;641;48.492;9.184;2023-08-21T04:34:23;16.97;;;11.30;;
1296;SDS011;641;48.492;9.184;2023-08-21T04:36:48;16.10;;;11.17;;
1296;SDS011;641;48.492;9.184;2023-08-21T04:39:14;19.93;;;10.70;;
1296;SDS011;641;48.492;9.184;2023-08-21T04:41:40;19.57;;;12.43;;
1296;SDS011;641;48.492;9.184;2023-08-21T04:44:06;18.50;;;11.87;;
1296;SDS011;641;48.492;9.184;2023-08-21T04:46:32;15.03;;;9.90;;
1296;SDS011;641;48.492;9.184;2023-08-21T04:48:57;15.50;;;11.30;;
1296;SDS011;641;48.492;9.184;2023-08-21T04:51:23;16.63;;;9.93;;
1296;SDS011;641;48.492;9.184;2023-08-21T04:53:48;16.83;;;9.57;;
1296;SDS011;641;48.492;9.184;2023-08-21T04:56:14;15.03;;;10.00;;
1296;SDS011;641;48.492;9.184;2023-08-21T04:58:39;14.37;;;9.77;;
1296;SDS011;641;48.492;9.184;2023-08-21T05:01:05;13.37;;;8.73;;
1296;SDS011;641;48.492;9.184;2023-08-21T05:03:31;16.43;;;10.50;;
1296;SDS011;641;48.492;9.184;2023-08-21T05:05:56;15.67;;;10.47;;
1296;SDS011;641;48.492;9.184;2023-08-21T05:08:23;14.33;;;9.73;;
1296;SDS011;641;48.492;9.184;2023-08-21T05:10:59;20.50;;;11.27;;
1296;SDS011;641;48.492;9.184;2023-08-21T05:13:26;15.77;;;11.37;;
1296;SDS011;641;48.492;9.184;2023-08-21T05:15:55;18.47;;;10.87;;
1296;SDS011;641;48.492;9.184;2023-08-21T05:18:22;17.70;;;11.97;;
1296;SDS011;641;48.492;9.184;2023-08-21T05:20:49;15.63;;;10.20;;
1296;SDS011;641;48.492;9.184;2023-08-21T05:23:16;18.33;;;10.00;;
1296;SDS011;641;48.492;9.184;2023-08-21T05:25:47;13.60;;;9.00;;
1296;SDS011;641;48.492;9.184;2023-08-21T05:28:13;13.70;;;8.97;;
1296;SDS011;641;48.492;9.184;2023-08-21T05:30:39;16.83;;;9.73;;
1296;SDS011;641;48.492;9.184;2023-08-21T05:33:04;18.23;;;10.43;;
1296;SDS011;641;48.492;9.184;2023-08-21T05:35:34;17.73;;;10.20;;
1296;SDS011;641;48.492;9.184;2023-08-21T05:38:01;15.70;;;9.80;;
1296;SDS011;641;48.492;9.184;2023-08-21T05:40:27;13.40;;;9.27;;
1296;SDS011;641;48.492;9.184;2023-08-21T05:42:52;16.97;;;10.50;;
1296;SDS011;641;48.492;9.184;2023-08-21T05:45:18;18.30;;;10.73;;
1296;SDS011;641;48.492;9.184;2023-08-21T05:47:44;17.37;;;10.93;;
1296;SDS011;641;48.492;9.184;2023-08-21T05:50:09;15.37;;;9.93;;
1296;SDS011;641;48.492;9.184;2023-08-21T05:52:35;14.63;;;8.90;;
1296;SDS011;641;48.492;9.184;2023-08-21T05:55:01;15.53;;;9.70;;
1296;SDS011;641;48.492;9.184;2023-08-21T05:57:26;13.67;;;8.73;;
1296;SDS011;641;48.492;9.184;2023-08-21T05:59:52;16.47;;;10.20;;
1296;SDS011;641;48.492;9.184;2023-08-21T06:02:17;14.70;;;9.03;;
1296;SDS011;641;48.492;9.184;2023-08-21T06:04:43;14.63;;;9.23;;
1296;SDS011;641;48.492;9.184;2023-08-21T06:07:08;15.93;;;9.67;;
1296;SDS011;641;48.492;9.184;2023-08-21T06:09:35;14.20;;;9.97;;
1296;SDS011;641;48.492;9.184;2023-08-21T06:12:01;14.40;;;11.00;;
1296;SDS011;641;48.492;9.184;2023-08-21T06:14:28;20.00;;;11.70;;
1296;SDS011;641;48.492;9.184;2023-08-21T06:16:57;15.03;;;10.40;;
1296;SDS011;641;48.492;9.184;2023-08-21T06:19:24;19.50;;;10.40;;
1296;SDS011;641;48.492;9.184;2023-08-21T06:21:49;19.17;;;11.50;;
1296;SDS011;641;48.492;9.184;2023-08-21T06:24:15;16.00;;;10.10;;
1296;SDS011;641;48.492;9.184;2023-08-21T06:26:41;21.07;;;10.90;;
1296;SDS011;641;48.492;9.184;2023-08-21T06:29:07;16.23;;;10.10;;
1296;SDS011;641;48.492;9.184;2023-08-21T06:31:32;15.33;;;8.90;;
1296;SDS011;641;48.492;9.184;2023-08-21T06:33:58;16.93;;;10.20;;
1296;SDS011;641;48.492;9.184;2023-08-21T06:36:23;16.20;;;8.70;;
1296;SDS011;641;48.492;9.184;2023-08-21T06:38:49;13.13;;;9.63;;
1296;SDS011;641;48.492;9.184;2023-08-21T06:41:15;16.30;;;10.77;;
1296;SDS011;641;48.492;9.184;2023-08-21T06:43:40;14.30;;;9.67;;
1296;SDS011;641;48.492;9.184;2023-08-21T06:46:06;15.20;;;8.83;;
1296;SDS011;641;48.492;9.184;2023-08-21T06:48:32;14.97;;;10.27;;
1296;SDS011;641;48.492;9.184;2023-08-21T06:50:59;14.97;;;9.03;;
1296;SDS011;641;48.492;9.184;2023-08-21T06:53:24;20.50;;;10.20;;
1296;SDS011;641;48.492;9.184;2023-08-21T06:55:50;14.97;;;9.20;;
1296;SDS011;641;48.492;9.184;2023-08-21T06:58:15;19.53;;;9.57;;
1296;SDS011;641;48.492;9.184;2023-08-21T07:00:41;15.13;;;8.93;;
1296;SDS011;641;48.492;9.184;2023-08-21T07:03:07;14.93;;;10.00;;
1296;SDS011;641;48.492;9.184;2023-08-21T07:05:33;14.87;;;8.97;;
1296;SDS011;641;48.492;9.184;2023-08-21T07:07:58;14.00;;;8.73;;
1296;SDS011;641;48.492;9.184;2023-08-21T07:10:24;15.77;;;9.50;;
1296;SDS011;641;48.492;9.184;2023-08-21T07:12:50;13.93;;;8.60;;
1296;SDS011;641;48.492;9.184;2023-08-21T07:15:16;20.90;;;8.80;;
1296;SDS011;641;48.492;9.184;2023-08-21T07:17:41;13.00;;;8.60;;
1296;SDS011;641;48.492;9.184;2023-08-21T07:20:07;16.93;;;9.00;;
1296;SDS011;641;48.492;9.184;2023-08-21T07:22:33;18.90;;;9.97;;
1296;SDS011;641;48.492;9.184;2023-08-21T07:24:58;15.00;;;9.30;;
1296;SDS011;641;48.492;9.184;2023-08-21T07:27:28;13.30;;;8.80;;
1296;SDS011;641;48.492;9.184;2023-08-21T07:29:54;17.00;;;9.20;;
1296;SDS011;641;48.492;9.184;2023-08-21T07:32:20;19.53;;;9.50;;
1296;SDS011;641;48.492;9.184;2023-08-21T07:34:45;18.30;;;9.47;;
1296;SDS011;641;48.492;9.184;2023-08-21T07:37:11;18.37;;;10.60;;
1296;SDS011;641;48.492;9.184;2023-08-21T07:39:36;13.40;;;8.30;;
1296;SDS011;641;48.492;9.184;2023-08-21T07:42:02;19.00;;;9.53;;
1296;SDS011;641;48.492;9.184;2023-08-21T07:44:28;14.70;;;9.40;;
1296;SDS011;641;48.492;9.184;2023-08-21T07:46:53;14.43;;;9.53;;
1296;SDS011;641;48.492;9.184;2023-08-21T07:49:19;14.83;;;9.77;;
1296;SDS011;641;48.492;9.184;2023-08-21T07:51:44;16.40;;;9.33;;
1296;SDS011;641;48.492;9.184;2023-08-21T07:54:10;17.80;;;10.73;;
1296;SDS011;641;48.492;9.184;2023-08-21T07:56:36;15.20;;;8.63;;
1296;SDS011;641;48.492;9.184;2023-08-21T07:59:02;17.60;;;10.53;;
1296;SDS011;641;48.492;9.184;2023-08-21T08:01:28;16.53;;;9.13;;
1296;SDS011;641;48.492;9.184;2023-08-21T08:03:54;14.60;;;9.03;;
1296;SDS011;641;48.492;9.184;2023-08-21T08:06:19;24.37;;;12.47;;
1296;SDS011;641;48.492;9.184;2023-08-21T08:08:45;21.60;;;10.00;;
1296;SDS011;641;48.492;9.184;2023-08-21T08:11:10;24.83;;;18.03;;
1296;SDS011;641;48.492;9.184;2023-08-21T08:13:36;26.43;;;13.00;;
1296;SDS011;641;48.492;9.184;2023-08-21T08:16:02;15.53;;;9.07;;
1296;SDS011;641;48.492;9.184;2023-08-21T08:18:27;18.73;;;11.00;;
1296;SDS011;641;48.492;9.184;2023-08-21T08:20:53;18.07;;;8.00;;
1296;SDS011;641;48.492;9.184;2023-08-21T08:23:19;12.60;;;8.37;;
1296;SDS011;641;48.492;9.184;2023-08-21T08:25:45;14.23;;;8.83;;
1296;SDS011;641;48.492;9.184;2023-08-21T08:28:10;14.00;;;8.97;;
1296;SDS011;641;48.492;9.184;2023-08-21T08:30:36;15.60;;;8.90;;
1296;SDS011;641;48.492;9.184;2023-08-21T08:33:02;20.90;;;9.43;;
1296;SDS011;641;48.492;9.184;2023-08-21T08:35:27;16.80;;;9.10;;
1296;SDS011;641;48.492;9.184;2023-08-21T08:37:53;15.67;;;7.97;;
1296;SDS011;641;48.492;9.184;2023-08-21T08:40:19;16.43;;;9.43;;
1296;SDS011;641;48.492;9.184;2023-08-21T08:42:45;14.50;;;9.63;;
1296;SDS011;641;48.492;9.184;2023-08-21T08:45:12;17.07;;;9.40;;
1296;SDS011;641;48.492;9.184;2023-08-21T08:47:39;15.40;;;8.87;;
1296;SDS011;641;48.492;9.184;2023-08-21T08:50:06;13.57;;;8.30;;
1296;SDS011;641;48.492;9.184;2023-08-21T08:52:39;12.63;;;7.90;;
1296;SDS011;641;48.492;9.184;2023-08-21T08:55:05;13.70;;;8.20;;
1296;SDS011;641;48.492;9.184;2023-08-21T08:57:32;13.90;;;9.20;;
1296;SDS011;641;48.492;9.184;2023-08-21T08:59:57;16.83;;;9.53;;
1296;SDS011;641;48.492;9.184;2023-08-21T09:02:26;12.57;;;8.30;;
1296;SDS011;641;48.492;9.184;2023-08-21T09:04:52;17.10;;;9.50;;
1296;SDS011;641;48.492;9.184;2023-08-21T09:07:18;14.90;;;8.20;;
1296;SDS011;641;48.492;9.184;2023-08-21T09:09:45;14.00;;;8.40;;
1296;SDS011;641;48.492;9.184;2023-08-21T09:12:12;16.10;;;8.60;;
1296;SDS011;641;48.492;9.184;2023-08-21T09:14:39;13.00;;;8.57;;
1296;SDS011;641;48.492;9.184;2023-08-21T09:17:05;13.37;;;7.97;;
1296;SDS011;641;48.492;9.184;2023-08-21T09:19:31;15.17;;;7.80;;
1296;SDS011;641;48.492;9.184;2023-08-21T09:21:57;13.43;;;8.07;;
1296;SDS011;641;48.492;9.184;2023-08-21T09:24:23;16.53;;;8.87;;
1296;SDS011;641;48.492;9.184;2023-08-21T09:26:49;16.07;;;7.97;;
1296;SDS011;641;48.492;9.184;2023-08-21T09:29:15;16.07;;;8.00;;
1296;SDS011;641;48.492;9.184;2023-08-21T09:31:41;16.27;;;9.80;;
1296;SDS011;641;48.492;9.184;2023-08-21T09:34:10;17.83;;;8.97;;
1296;SDS011;641;48.492;9.184;2023-08-21T09:36:36;13.40;;;8.30;;
1296;SDS011;641;48.492;9.184;2023-08-21T09:39:04;12.27;;;7.40;;
1296;SDS011;641;48.492;9.184;2023-08-21T09:41:31;13.17;;;7.40;;
1296;SDS011;641;48.492;9.184;2023-08-21T09:43:59;14.67;;;7.50;;
1296;SDS011;641;48.492;9.184;2023-08-21T09:46:26;14.80;;;7.60;;
1296;SDS011;641;48.492;9.184;2023-08-21T09:48:53;14.80;;;7.60;;
1296;SDS011;641;48.492;9.184;2023-08-21T09:51:19;16.17;;;9.93;;
1296;SDS011;641;48.492;9.184;2023-08-21T09:53:45;16.27;;;8.27;;
1296;SDS011;641;48.492;9.184;2023-08-21T09:56:19;12.37;;;7.90;;
1296;SDS011;641;48.492;9.184;2023-08-21T09:58:46;11.70;;;7.07;;
1296;SDS011;641;48.492;9.184;2023-08-21T10:01:12;12.60;;;7.73;;
1296;SDS011;641;48.492;9.184;2023-08-21T10:03:40;19.23;;;7.33;;
1296;SDS011;641;48.492;9.184;2023-08-21T10:06:10;14.27;;;7.23;;
1296;SDS011;641;48.492;9.184;2023-08-21T10:08:37;18.60;;;7.60;;
1296;SDS011;641;48.492;9.184;2023-08-21T10:11:06;14.80;;;8.03;;
1296;SDS011;641;48.492;9.184;2023-08-21T10:13:33;13.80;;;7.63;;
1296;SDS011;641;48.492;9.184;2023-08-21T10:16:00;12.17;;;7.20;;
1296;SDS011;641;48.492;9.184;2023-08-21T10:21:17;10.60;;;6.70;;
1296;SDS011;641;48.492;9.184;2023-08-21T10:23:48;16.17;;;6.50;;
1296;SDS011;641;48.492;9.184;2023-08-21T10:26:15;13.63;;;8.20;;
1296;SDS011;641;48.492;9.184;2023-08-21T10:28:54;12.33;;;7.40;;
1296;SDS011;641;48.492;9.184;2023-08-21T10:33:56;13.20;;;7.27;;
1296;SDS011;641;48.492;9.184;2023-08-21T10:39:13;14.67;;;7.63;;
1296;SDS011;641;48.492;9.184;2023-08-21T10:41:39;12.67;;;6.50;;
1296;SDS011;641;48.492;9.184;2023-08-21T10:44:06;11.57;;;6.90;;
1296;SDS011;641;48.492;9.184;2023-08-21T10:46:52;18.77;;;7.40;;
1296;SDS011;641;48.492;9.184;2023-08-21T10:49:17;13.73;;;7.30;;
1296;SDS011;641;48.492;9.184;2023-08-21T10:51:43;17.60;;;8.47;;
1296;SDS011;641;48.492;9.184;2023-08-21T10:54:15;12.13;;;6.90;;
1296;SDS011;641;48.492;9.184;2023-08-21T10:56:41;13.90;;;7.10;;
1296;SDS011;641;48.492;9.184;2023-08-21T10:59:07;16.87;;;7.60;;
1296;SDS011;641;48.492;9.184;2023-08-21T11:01:44;19.17;;;7.60;;
1296;SDS011;641;48.492;9.184;2023-08-21T11:04:13;14.20;;;7.53;;
1296;SDS011;641;48.492;9.184;2023-08-21T11:06:39;17.67;;;7.80;;
1296;SDS011;641;48.492;9.184;2023-08-21T11:09:05;15.73;;;7.27;;
1296;SDS011;641;48.492;9.184;2023-08-21T11:11:37;14.10;;;7.23;;
1296;SDS011;641;48.492;9.184;2023-08-21T11:14:02;16.70;;;7.37;;
1296;SDS011;641;48.492;9.184;2023-08-21T11:16:28;14.37;;;7.40;;
1296;SDS011;641;48.492;9.184;2023-08-21T11:18:53;16.50;;;7.10;;
1296;SDS011;641;48.492;9.184;2023-08-21T11:21:19;13.07;;;7.20;;
1296;SDS011;641;48.492;9.184;2023-08-21T11:23:47;11.83;;;7.10;;
1296;SDS011;641;48.492;9.184;2023-08-21T11:26:13;13.90;;;7.17;;
1296;SDS011;641;48.492;9.184;2023-08-21T11:28:39;13.40;;;6.73;;
1296;SDS011;641;48.492;9.184;2023-08-21T11:31:05;13.90;;;7.43;;
1296;SDS011;641;48.492;9.184;2023-08-21T11:33:31;13.83;;;7.40;;
1296;SDS011;641;48.492;9.184;2023-08-21T11:35:57;12.90;;;6.80;;
1296;SDS011;641;48.492;9.184;2023-08-21T11:38:25;14.00;;;6.90;;
1296;SDS011;641;48.492;9.184;2023-08-21T11:43:22;11.63;;;7.20;;
1296;SDS011;641;48.492;9.184;2023-08-21T11:45:58;10.17;;;6.00;;
1296;SDS011;641;48.492;9.184;2023-08-21T11:48:23;12.63;;;7.17;;
1296;SDS011;641;48.492;9.184;2023-08-21T11:50:49;13.13;;;7.17;;
1296;SDS011;641;48.492;9.184;2023-08-21T11:53:14;13.13;;;6.70;;
1296;SDS011;641;48.492;9.184;2023-08-21T11:55:40;12.27;;;6.90;;
1296;SDS011;641;48.492;9.184;2023-08-21T11:58:06;14.80;;;7.67;;
1296;SDS011;641;48.492;9.184;2023-08-21T12:00:32;13.30;;;7.10;;
1296;SDS011;641;48.492;9.184;2023-08-21T12:02:58;13.60;;;7.20;;
1296;SDS011;641;48.492;9.184;2023-08-21T12:05:26;12.10;;;6.57;;
1296;SDS011;641;48.492;9.184;2023-08-21T12:07:52;14.17;;;7.27;;
1296;SDS011;641;48.492;9.184;2023-08-21T12:10:22;16.67;;;8.30;;
1296;SDS011;641;48.492;9.184;2023-08-21T12:12:48;13.90;;;6.80;;
1296;SDS011;641;48.492;9.184;2023-08-21T12:15:14;27.83;;;7.03;;
1296;SDS011;641;48.492;9.184;2023-08-21T12:17:39;11.30;;;7.13;;
1296;SDS011;641;48.492;9.184;2023-08-21T12:20:05;19.63;;;6.90;;
1296;SDS011;641;48.492;9.184;2023-08-21T12:22:35;14.90;;;7.20;;
1296;SDS011;641;48.492;9.184;2023-08-21T12:25:02;12.80;;;7.20;;
1296;SDS011;641;48.492;9.184;2023-08-21T12:27:29;15.37;;;7.20;;
1296;SDS011;641;48.492;9.184;2023-08-21T12:29:54;12.20;;;6.97;;
1296;SDS011;641;48.492;9.184;2023-08-21T12:32:20;11.63;;;6.67;;
1296;SDS011;641;48.492;9.184;2023-08-21T12:34:45;12.67;;;6.70;;
1296;SDS011;641;48.492;9.184;2023-08-21T12:37:11;11.67;;;6.87;;
1296;SDS011;641;48.492;9.184;2023-08-21T12:39:37;13.00;;;7.13;;
1296;SDS011;641;48.492;9.184;2023-08-21T12:42:02;12.80;;;7.83;;
1296;SDS011;641;48.492;9.184;2023-08-21T12:44:28;11.57;;;6.73;;
1296;SDS011;641;48.492;9.184;2023-08-21T12:46:54;13.53;;;7.80;;
1296;SDS011;641;48.492;9.184;2023-08-21T12:49:19;12.73;;;7.50;;
1296;SDS011;641;48.492;9.184;2023-08-21T12:51:45;13.80;;;7.10;;
1296;SDS011;641;48.492;9.184;2023-08-21T12:54:10;15.87;;;7.50;;
1296;SDS011;641;48.492;9.184;2023-08-21T12:56:36;14.03;;;7.07;;
1296;SDS011;641;48.492;9.184;2023-08-21T12:59:01;14.57;;;7.60;;
1296;SDS011;641;48.492;9.184;2023-08-21T13:01:28;13.70;;;7.33;;
1296;SDS011;641;48.492;9.184;2023-08-21T13:03:54;12.60;;;7.00;;
1296;SDS011;641;48.492;9.184;2023-08-21T13:06:20;16.43;;;7.37;;
1296;SDS011;641;48.492;9.184;2023-08-21T13:08:45;15.67;;;8.07;;
1296;SDS011;641;48.492;9.184;2023-08-21T13:11:11;14.90;;;7.40;;
1296;SDS011;641;48.492;9.184;2023-08-21T13:13:37;20.43;;;12.63;;
1296;SDS011;641;48.492;9.184;2023-08-21T13:16:02;13.20;;;7.47;;
1296;SDS011;641;48.492;9.184;2023-08-21T13:18:28;13.73;;;6.73;;
1296;SDS011;641;48.492;9.184;2023-08-21T13:20:54;15.50;;;6.40;;
1296;SDS011;641;48.492;9.184;2023-08-21T13:23:19;13.97;;;6.50;;
1296;SDS011;641;48.492;9.184;2023-08-21T13:25:45;11.00;;;6.00;;
1296;SDS011;641;48.492;9.184;2023-08-21T13:28:10;11.20;;;6.43;;
1296;SDS011;641;48.492;9.184;2023-08-21T13:30:36;15.43;;;6.70;;
1296;SDS011;641;48.492;9.184;2023-08-21T13:33:02;14.20;;;6.83;;
1296;SDS011;641;48.492;9.184;2023-08-21T13:35:29;12.90;;;6.90;;
1296;SDS011;641;48.492;9.184;2023-08-21T13:37:55;16.20;;;7.60;;
1296;SDS011;641;48.492;9.184;2023-08-21T13:40:20;13.60;;;6.80;;
1296;SDS011;641;48.492;9.184;2023-08-21T13:42:47;12.77;;;6.33;;
1296;SDS011;641;48.492;9.184;2023-08-21T13:45:13;11.30;;;5.80;;
1296;SDS011;641;48.492;9.184;2023-08-21T13:47:41;16.53;;;6.23;;
1296;SDS011;641;48.492;9.184;2023-08-21T13:50:08;13.03;;;6.40;;
1296;SDS011;641;48.492;9.184;2023-08-21T13:52:34;11.23;;;5.60;;
1296;SDS011;641;48.492;9.184;2023-08-21T13:55:01;14.33;;;6.50;;
1296;SDS011;641;48.492;9.184;2023-08-21T13:57:27;11.87;;;5.57;;
1296;SDS011;641;48.492;9.184;2023-08-21T13:59:53;14.97;;;6.50;;
1296;SDS011;641;48.492;9.184;2023-08-21T14:02:19;11.23;;;5.80;;
1296;SDS011;641;48.492;9.184;2023-08-21T14:04:45;15.70;;;5.63;;
1296;SDS011;641;48.492;9.184;2023-08-21T14:07:11;11.40;;;5.70;;
1296;SDS011;641;48.492;9.184;2023-08-21T14:09:37;10.47;;;5.47;;
1296;SDS011;641;48.492;9.184;2023-08-21T14:12:06;12.30;;;5.70;;
1296;SDS011;641;48.492;9.184;2023-08-21T14:14:34;12.97;;;5.53;;
1296;SDS011;641;48.492;9.184;2023-08-21T14:17:01;11.50;;;5.80;;
1296;SDS011;641;48.492;9.184;2023-08-21T14:19:28;12.07;;;5.27;;
1296;SDS011;641;48.492;9.184;2023-08-21T14:21:54;11.87;;;5.93;;
1296;SDS011;641;48.492;9.184;2023-08-21T14:24:20;11.40;;;5.60;;
1296;SDS011;641;48.492;9.184;2023-08-21T14:26:45;12.53;;;6.17;;
1296;SDS011;641;48.492;9.184;2023-08-21T14:29:11;15.10;;;6.20;;
1296;SDS011;641;48.492;9.184;2023-08-21T14:31:36;9.50;;;5.23;;
1296;SDS011;641;48.492;9.184;2023-08-21T14:34:02;12.20;;;5.07;;
1296;SDS011;641;48.492;9.184;2023-08-21T14:36:27;12.70;;;5.73;;
1296;SDS011;641;48.492;9.184;2023-08-21T14:38:53;13.50;;;5.80;;
1296;SDS011;641;48.492;9.184;2023-08-21T14:41:19;14.37;;;6.13;;
1296;SDS011;641;48.492;9.184;2023-08-21T14:43:44;12.63;;;6.40;;
1296;SDS011;641;48.492;9.184;2023-08-21T14:46:10;12.03;;;6.60;;
1296;SDS011;641;48.492;9.184;2023-08-21T14:48:35;12.07;;;5.40;;
1296;SDS011;641;48.492;9.184;2023-08-21T14:51:01;13.20;;;5.87;;
1296;SDS011;641;48.492;9.184;2023-08-21T14:53:29;13.70;;;6.63;;
1296;SDS011;641;48.492;9.184;2023-08-21T14:55:54;10.53;;;5.43;;
1296;SDS011;641;48.492;9.184;2023-08-21T14:58:20;11.30;;;5.60;;
1296;SDS011;641;48.492;9.184;2023-08-21T15:00:46;12.77;;;6.67;;
1296;SDS011;641;48.492;9.184;2023-08-21T15:03:11;12.93;;;6.40;;
1296;SDS011;641;48.492;9.184;2023-08-21T15:05:37;12.03;;;6.27;;
1296;SDS011;641;48.492;9.184;2023-08-21T15:08:02;13.10;;;6.53;;
1296;SDS011;641;48.492;9.184;2023-08-21T15:10:28;11.00;;;6.40;;
1296;SDS011;641;48.492;9.184;2023-08-21T15:12:54;11.47;;;5.17;;
1296;SDS011;641;48.492;9.184;2023-08-21T15:15:19;12.60;;;6.00;;
1296;SDS011;641;48.492;9.184;2023-08-21T15:17:45;16.93;;;6.37;;
1296;SDS011;641;48.492;9.184;2023-08-21T15:20:11;13.43;;;6.93;;
1296;SDS011;641;48.492;9.184;2023-08-21T15:22:39;18.73;;;6.97;;
1296;SDS011;641;48.492;9.184;2023-08-21T15:25:05;22.37;;;6.53;;